createdAt,value
2023-05-15T00:01:28.890Z,2.40
2023-05-15T00:03:55.480Z,2.50
2023-05-15T00:06:22.173Z,2.65
2023-05-15T00:08:50.097Z,2.45
2023-05-15T00:11:16.641Z,2.70
2023-05-15T00:13:43.143Z,2.70
2023-05-15T00:16:09.789Z,2.70
2023-05-15T00:18:36.494Z,2.75
2023-05-15T00:21:03.148Z,2.78
2023-05-15T00:23:29.730Z,2.90
2023-05-15T00:25:57.644Z,2.60
2023-05-15T00:28:24.325Z,2.67
2023-05-15T00:30:50.976Z,3.20
2023-05-15T00:33:17.560Z,3.10
2023-05-15T00:35:44.280Z,2.65
2023-05-15T00:38:11.988Z,2.95
2023-05-15T00:40:40.939Z,3.08
2023-05-15T00:43:11.109Z,2.90
2023-05-15T00:45:39.460Z,2.85
2023-05-15T00:48:09.182Z,2.60
2023-05-15T00:50:37.025Z,2.72
2023-05-15T00:53:06.014Z,3.92
2023-05-15T00:55:33.387Z,3.65
2023-05-15T00:58:01.364Z,3.25
2023-05-15T01:00:31.533Z,3.00
2023-05-15T01:02:59.077Z,3.03
2023-05-15T01:05:27.639Z,3.45
2023-05-15T01:08:01.327Z,3.40
2023-05-15T01:10:28.383Z,2.80
2023-05-15T01:12:56.520Z,3.53
2023-05-15T01:15:23.963Z,3.50
2023-05-15T01:17:52.157Z,3.22
2023-05-15T01:20:20.558Z,3.00
2023-05-15T01:22:55.271Z,3.38
2023-05-15T01:25:46.145Z,3.08
2023-05-15T01:28:18.923Z,2.80
2023-05-15T01:30:48.704Z,4.03
2023-05-15T01:33:20.932Z,2.92
2023-05-15T01:35:52.882Z,3.17
2023-05-15T01:38:34.533Z,2.65
2023-05-15T01:41:06.008Z,3.10
2023-05-15T01:43:37.215Z,3.08
2023-05-15T01:46:06.186Z,2.70
2023-05-15T01:48:34.011Z,3.25
2023-05-15T01:51:03.583Z,2.97
2023-05-15T01:53:31.816Z,3.53
2023-05-15T01:55:59.664Z,3.38
2023-05-15T01:58:28.089Z,3.10
2023-05-15T02:00:58.335Z,3.13
2023-05-15T02:03:25.261Z,3.13
2023-05-15T02:05:52.765Z,3.55
2023-05-15T02:08:21.608Z,3.13
2023-05-15T02:10:49.494Z,3.25
2023-05-15T02:13:19.218Z,3.50
2023-05-15T02:15:46.124Z,3.47
2023-05-15T02:18:14.960Z,3.30
2023-05-15T02:20:41.715Z,3.00
2023-05-15T02:23:08.997Z,4.10
2023-05-15T02:25:44.467Z,3.20
2023-05-15T02:28:22.119Z,3.08
2023-05-15T02:30:55.813Z,3.00
2023-05-15T02:33:42.478Z,3.00
2023-05-15T02:36:14.146Z,3.10
2023-05-15T02:38:46.595Z,3.05
2023-05-15T02:41:14.794Z,3.08
2023-05-15T02:43:42.405Z,3.60
2023-05-15T02:46:12.538Z,3.20
2023-05-15T02:48:41.694Z,3.30
2023-05-15T02:51:08.908Z,3.03
2023-05-15T02:53:39.692Z,3.85
2023-05-15T02:56:06.930Z,3.58
2023-05-15T02:58:33.987Z,3.40
2023-05-15T03:01:00.664Z,3.35
2023-05-15T03:03:27.255Z,3.75
2023-05-15T03:05:55.128Z,3.63
2023-05-15T03:08:21.783Z,3.60
2023-05-15T03:10:48.360Z,3.75
2023-05-15T03:13:14.908Z,3.08
2023-05-15T03:15:43.716Z,3.15
2023-05-15T03:18:10.665Z,3.35
2023-05-15T03:20:37.286Z,4.03
2023-05-15T03:23:05.196Z,3.20
2023-05-15T03:25:31.725Z,3.17
2023-05-15T03:27:58.264Z,3.58
2023-05-15T03:30:24.809Z,3.50
2023-05-15T03:32:51.518Z,3.65
2023-05-15T03:35:18.213Z,3.30
2023-05-15T03:37:44.803Z,3.78
2023-05-15T03:40:14.058Z,3.70
2023-05-15T03:42:40.693Z,3.40
2023-05-15T03:45:08.636Z,3.80
2023-05-15T03:47:35.235Z,3.45
2023-05-15T03:50:01.876Z,3.97
2023-05-15T03:52:32.168Z,4.88
2023-05-15T03:54:59.204Z,3.40
2023-05-15T03:57:27.284Z,3.42
2023-05-15T03:59:53.975Z,3.40
2023-05-15T04:02:20.537Z,3.17
2023-05-15T04:04:47.213Z,3.33
2023-05-15T04:07:13.744Z,3.30
2023-05-15T04:09:40.334Z,3.33
2023-05-15T04:12:07.192Z,3.35
2023-05-15T04:14:35.204Z,3.60
2023-05-15T04:17:01.738Z,3.28
2023-05-15T04:19:28.363Z,3.20
2023-05-15T04:21:54.866Z,3.00
2023-05-15T04:24:21.455Z,3.25
2023-05-15T04:26:48.061Z,3.30
2023-05-15T04:29:14.667Z,2.97
2023-05-15T04:31:42.571Z,3.65
2023-05-15T04:34:09.176Z,3.50
2023-05-15T04:36:35.685Z,3.53
2023-05-15T04:39:02.254Z,3.35
2023-05-15T04:41:28.725Z,3.88
2023-05-15T04:43:55.341Z,3.47
2023-05-15T04:46:21.943Z,3.47
2023-05-15T04:48:49.851Z,3.83
2023-05-15T04:51:16.373Z,3.85
2023-05-15T04:53:42.972Z,4.57
2023-05-15T04:56:09.450Z,3.80
2023-05-15T04:58:35.995Z,4.18
2023-05-15T05:01:04.162Z,3.60
2023-05-15T05:03:31.094Z,3.72
2023-05-15T05:05:59.065Z,3.90
2023-05-15T05:08:25.680Z,4.25
2023-05-15T05:10:55.537Z,4.28
2023-05-15T05:13:22.108Z,4.20
2023-05-15T05:15:48.782Z,5.32
2023-05-15T05:18:15.372Z,4.20
2023-05-15T05:20:41.856Z,4.45
2023-05-15T05:23:09.772Z,4.88
2023-05-15T05:25:36.311Z,4.82
2023-05-15T05:28:02.877Z,4.65
2023-05-15T05:30:29.379Z,4.53
2023-05-15T05:32:56.071Z,4.32
2023-05-15T05:35:22.805Z,4.05
2023-05-15T05:37:49.551Z,4.78
2023-05-15T05:40:17.432Z,4.38
2023-05-15T05:42:43.994Z,4.53
2023-05-15T05:45:11.317Z,4.68
2023-05-15T05:47:37.886Z,4.30
2023-05-15T05:50:05.528Z,4.68
2023-05-15T05:52:32.208Z,4.82
2023-05-15T05:54:58.755Z,4.93
2023-05-15T05:57:26.776Z,4.93
2023-05-15T05:59:53.379Z,5.38
2023-05-15T06:02:20.160Z,5.10
2023-05-15T06:04:46.665Z,5.28
2023-05-15T06:07:13.220Z,4.63
2023-05-15T06:09:39.792Z,5.20
2023-05-15T06:12:07.202Z,5.53
2023-05-15T06:14:35.232Z,5.03
2023-05-15T06:17:01.864Z,4.53
2023-05-15T06:19:29.059Z,5.28
2023-05-15T06:21:55.740Z,5.57
2023-05-15T06:24:22.283Z,5.13
2023-05-15T06:26:50.362Z,5.80
2023-05-15T06:29:17.236Z,5.82
2023-05-15T06:31:45.280Z,5.45
2023-05-15T06:34:11.754Z,5.90
2023-05-15T06:36:38.344Z,8.75
2023-05-15T06:39:04.825Z,14.82
2023-05-15T06:41:32.032Z,27.25
2023-05-15T06:43:58.539Z,26.42
2023-05-15T06:46:25.181Z,23.40
2023-05-15T06:48:53.044Z,26.10
2023-05-15T06:51:19.735Z,27.17
2023-05-15T06:53:46.245Z,25.90
2023-05-15T06:56:12.870Z,26.63
2023-05-15T06:58:39.426Z,26.25
2023-05-15T07:01:05.996Z,27.92
2023-05-15T07:03:32.625Z,26.27
2023-05-15T07:06:00.522Z,25.42
2023-05-15T07:08:27.064Z,24.60
2023-05-15T07:10:53.676Z,27.55
2023-05-15T07:13:20.876Z,26.27
2023-05-15T07:15:47.603Z,27.73
2023-05-15T07:18:14.410Z,27.92
2023-05-15T07:20:41.134Z,26.77
2023-05-15T07:23:09.078Z,28.02
2023-05-15T07:25:35.631Z,30.45
2023-05-15T07:28:02.157Z,29.52
2023-05-15T07:30:28.927Z,28.00
2023-05-15T07:32:55.563Z,30.48
2023-05-15T07:35:22.181Z,29.55
2023-05-15T07:37:48.946Z,29.48
2023-05-15T07:40:16.970Z,27.10
2023-05-15T07:42:44.495Z,26.65
2023-05-15T07:45:11.338Z,24.80
2023-05-15T07:47:37.949Z,26.15
2023-05-15T07:50:05.404Z,24.42
2023-05-15T07:52:31.984Z,22.67
2023-05-15T07:54:58.551Z,22.40
2023-05-15T07:57:26.495Z,20.42
2023-05-15T07:59:53.172Z,20.75
2023-05-15T08:02:19.778Z,19.40
2023-05-15T08:04:46.535Z,21.88
2023-05-15T08:07:13.471Z,19.48
2023-05-15T08:09:40.027Z,18.35
2023-05-15T08:12:17.082Z,19.30
2023-05-15T08:14:45.180Z,22.50
2023-05-15T08:17:12.003Z,25.25
2023-05-15T08:19:38.601Z,25.08
2023-05-15T08:22:05.141Z,24.75
2023-05-15T08:24:31.726Z,24.98
2023-05-15T08:26:58.346Z,24.92
2023-05-15T08:29:24.912Z,25.27
2023-05-15T08:31:53.121Z,26.13
2023-05-15T08:34:19.713Z,25.80
2023-05-15T08:36:46.202Z,24.98
2023-05-15T08:39:12.916Z,24.58
2023-05-15T08:41:45.144Z,25.10
2023-05-15T08:44:12.898Z,26.10
2023-05-15T08:46:39.811Z,24.30
2023-05-15T08:49:14.565Z,26.77
2023-05-15T08:51:41.452Z,24.65
2023-05-15T08:54:08.616Z,25.40
2023-05-15T08:56:36.076Z,25.00
2023-05-15T08:59:03.504Z,25.60
2023-05-15T09:01:30.575Z,25.67
2023-05-15T09:03:57.206Z,27.20
2023-05-15T09:06:26.048Z,29.33
2023-05-15T09:08:55.838Z,26.35
2023-05-15T09:11:24.033Z,26.83
2023-05-15T09:13:50.565Z,27.20
2023-05-15T09:16:17.377Z,24.90
2023-05-15T09:18:44.923Z,27.90
2023-05-15T09:21:26.795Z,26.58
2023-05-15T09:26:20.051Z,28.65
2023-05-15T09:28:46.699Z,26.52
2023-05-15T09:31:13.650Z,29.00
2023-05-15T09:33:41.098Z,26.38
2023-05-15T09:36:08.980Z,28.15
2023-05-15T09:38:41.757Z,27.90
2023-05-15T09:41:09.105Z,25.35
2023-05-15T09:43:37.311Z,26.38
2023-05-15T09:46:04.388Z,26.77
2023-05-15T09:48:31.509Z,26.27
2023-05-15T09:50:58.474Z,28.00
2023-05-15T09:53:25.280Z,25.50
2023-05-15T09:55:53.690Z,26.27
2023-05-15T09:58:20.536Z,27.73
2023-05-15T10:00:49.566Z,25.48
2023-05-15T10:03:18.247Z,26.05
2023-05-15T10:05:44.931Z,25.45
2023-05-15T10:08:12.068Z,24.95
2023-05-15T10:10:38.886Z,27.02
2023-05-15T10:13:08.513Z,25.20
2023-05-15T10:15:35.351Z,25.70
2023-05-15T10:18:04.742Z,25.90
2023-05-15T10:20:33.498Z,24.60
2023-05-15T10:23:03.681Z,24.80
2023-05-15T10:25:35.589Z,23.73
2023-05-15T10:28:03.196Z,23.73
2023-05-15T10:30:32.060Z,25.05
2023-05-15T10:33:00.544Z,23.65
2023-05-15T10:35:28.435Z,24.35
2023-05-15T10:37:55.265Z,22.05
2023-05-15T10:40:22.301Z,22.70
2023-05-15T10:42:49.580Z,21.85
2023-05-15T10:45:16.668Z,22.98
2023-05-15T10:47:45.574Z,23.00
2023-05-15T10:50:12.963Z,23.05
2023-05-15T10:52:39.768Z,21.92
2023-05-15T10:55:08.301Z,22.00
2023-05-15T10:57:35.370Z,21.13
2023-05-15T11:00:02.144Z,21.60
2023-05-15T11:02:29.381Z,20.95
2023-05-15T11:04:59.293Z,19.73
2023-05-15T11:07:26.302Z,20.52
2023-05-15T11:09:53.396Z,20.65
2023-05-15T11:12:20.283Z,19.75
2023-05-15T11:15:20.412Z,20.05
2023-05-15T11:18:02.633Z,19.17
2023-05-15T11:20:37.471Z,18.92
2023-05-15T11:23:04.096Z,19.95
2023-05-15T11:25:31.162Z,17.67
2023-05-15T11:27:58.023Z,17.88
2023-05-15T11:30:35.233Z,18.15
2023-05-15T11:33:05.643Z,17.88
2023-05-15T11:35:35.338Z,17.88
2023-05-15T11:38:03.386Z,16.95
2023-05-15T11:40:31.023Z,17.40
2023-05-15T11:43:02.702Z,16.65
2023-05-15T11:45:30.687Z,15.95
2023-05-15T11:47:59.888Z,17.23
2023-05-15T11:50:27.776Z,17.15
2023-05-15T11:52:56.142Z,15.00
2023-05-15T11:55:23.018Z,14.57
2023-05-15T11:57:49.582Z,14.68
2023-05-15T12:00:16.761Z,15.93
2023-05-15T12:02:43.281Z,14.40
2023-05-15T12:05:11.128Z,14.18
2023-05-15T12:07:38.766Z,14.95
2023-05-15T12:10:09.916Z,15.70
2023-05-15T12:12:39.507Z,14.45
2023-05-15T12:15:09.228Z,13.40
2023-05-15T12:17:37.463Z,13.23
2023-05-15T12:20:07.305Z,12.48
2023-05-15T12:22:36.799Z,11.73
2023-05-15T12:25:04.343Z,12.48
2023-05-15T12:27:32.613Z,11.63
2023-05-15T12:29:59.522Z,10.20
2023-05-15T12:32:26.318Z,10.55
2023-05-15T12:34:53.179Z,10.13
2023-05-15T12:37:20.221Z,10.02
2023-05-15T12:39:51.738Z,10.05
2023-05-15T12:42:18.320Z,10.80
2023-05-15T12:44:46.423Z,8.88
2023-05-15T12:47:14.257Z,9.85
2023-05-15T12:49:41.679Z,9.82
2023-05-15T12:52:09.207Z,9.02
2023-05-15T12:54:39.782Z,8.40
2023-05-15T12:57:06.561Z,7.45
2023-05-15T12:59:33.167Z,7.00
2023-05-15T13:02:01.820Z,6.47
2023-05-15T13:04:28.430Z,6.18
2023-05-15T13:06:55.070Z,7.07
2023-05-15T13:09:22.217Z,6.53
2023-05-15T13:11:49.022Z,6.47
2023-05-15T13:14:17.887Z,7.90
2023-05-15T13:16:46.156Z,7.47
2023-05-15T13:19:14.396Z,7.18
2023-05-15T13:21:41.120Z,6.22
2023-05-15T13:24:08.701Z,7.53
2023-05-15T13:26:35.345Z,6.85
2023-05-15T13:29:02.048Z,7.63
2023-05-15T13:31:28.673Z,7.60
2023-05-15T13:33:55.215Z,7.32
2023-05-15T13:36:23.219Z,7.00
2023-05-15T13:38:49.739Z,7.43
2023-05-15T13:41:16.479Z,6.55
2023-05-15T13:43:43.165Z,6.50
2023-05-15T13:46:09.799Z,6.93
2023-05-15T13:48:36.294Z,6.55
2023-05-15T13:51:02.938Z,6.60
2023-05-15T13:53:30.777Z,6.38
2023-05-15T13:55:57.476Z,5.30
2023-05-15T13:58:25.075Z,4.85
2023-05-15T14:00:51.977Z,4.90
2023-05-15T14:03:18.599Z,5.07
2023-05-15T14:05:45.330Z,5.30
2023-05-15T14:08:11.813Z,5.22
2023-05-15T14:10:39.961Z,5.72
2023-05-15T14:13:06.467Z,5.45
2023-05-15T14:15:33.066Z,5.18
2023-05-15T14:17:59.613Z,7.10
2023-05-15T14:20:26.747Z,5.65
2023-05-15T14:22:53.556Z,6.15
2023-05-15T14:25:20.565Z,5.57
2023-05-15T14:27:48.452Z,5.72
2023-05-15T14:30:15.177Z,5.70
2023-05-15T14:32:41.887Z,5.20
2023-05-15T14:35:08.743Z,5.65
2023-05-15T14:37:36.204Z,4.97
2023-05-15T14:40:02.931Z,5.05
2023-05-15T14:42:29.454Z,5.53
2023-05-15T14:44:57.578Z,5.05
2023-05-15T14:47:24.134Z,5.53
2023-05-15T14:49:50.783Z,5.20
2023-05-15T14:52:17.628Z,5.28
2023-05-15T14:54:45.980Z,5.45
2023-05-15T14:57:15.835Z,5.95
2023-05-15T14:59:42.338Z,5.47
2023-05-15T15:02:10.498Z,5.60
2023-05-15T15:04:37.228Z,5.75
2023-05-15T15:07:04.488Z,5.25
2023-05-15T15:09:31.306Z,5.07
2023-05-15T15:11:57.963Z,5.45
2023-05-15T15:14:24.489Z,4.97
2023-05-15T15:16:51.345Z,4.80
2023-05-15T15:19:20.404Z,3.85
2023-05-15T15:21:47.255Z,4.30
2023-05-15T15:24:13.953Z,4.03
2023-05-15T15:26:40.513Z,3.95
2023-05-15T15:29:07.087Z,4.60
2023-05-15T15:31:33.794Z,5.05
2023-05-15T15:34:01.359Z,6.38
2023-05-15T15:36:30.341Z,6.50
2023-05-15T15:38:56.863Z,7.40
2023-05-15T15:41:23.782Z,8.43
2023-05-15T15:43:50.297Z,8.02
2023-05-15T15:46:16.945Z,8.85
2023-05-15T15:48:43.532Z,11.20
2023-05-15T15:51:10.124Z,8.25
2023-05-15T15:53:38.070Z,9.13
2023-05-15T15:56:05.052Z,8.85
2023-05-15T15:58:31.547Z,9.70
2023-05-15T16:00:58.250Z,9.07
2023-05-15T16:03:24.920Z,8.35
2023-05-15T16:05:51.656Z,8.18
2023-05-15T16:08:18.191Z,7.95
2023-05-15T16:10:46.361Z,8.20
2023-05-15T16:13:13.341Z,7.53
2023-05-15T16:15:39.996Z,6.45
2023-05-15T16:18:06.523Z,8.15
2023-05-15T16:20:35.258Z,6.57
2023-05-15T16:23:02.061Z,6.63
2023-05-15T16:25:28.709Z,7.10
2023-05-15T16:27:56.564Z,5.95
2023-05-15T16:30:28.260Z,5.85
2023-05-15T16:33:00.850Z,5.13
2023-05-15T16:35:27.989Z,5.40
2023-05-15T16:37:55.747Z,6.05
2023-05-15T16:40:22.329Z,5.35
2023-05-15T16:42:49.115Z,5.45
2023-05-15T16:45:17.005Z,5.97
2023-05-15T16:47:43.557Z,7.00
2023-05-15T16:50:10.747Z,6.85
2023-05-15T16:52:37.668Z,6.35
2023-05-15T16:55:05.043Z,7.75
2023-05-15T16:57:31.561Z,7.40
2023-05-15T16:59:58.307Z,7.75
2023-05-15T17:02:26.404Z,6.97
2023-05-15T17:04:52.978Z,7.30
2023-05-15T17:07:20.429Z,7.28
2023-05-15T17:09:47.060Z,6.93
2023-05-15T17:12:13.744Z,7.28
2023-05-15T17:14:40.309Z,7.43
2023-05-15T17:17:07.113Z,7.22
2023-05-15T17:19:35.042Z,6.35
2023-05-15T17:22:01.686Z,6.72
2023-05-15T17:24:38.560Z,6.78
2023-05-15T17:27:15.100Z,6.05
2023-05-15T17:29:41.725Z,6.18
2023-05-15T17:32:08.455Z,5.97
2023-05-15T17:34:36.624Z,6.07
2023-05-15T17:37:03.641Z,6.18
2023-05-15T17:39:30.252Z,7.47
2023-05-15T17:41:56.972Z,7.40
2023-05-15T17:44:23.811Z,7.75
2023-05-15T17:46:50.430Z,8.45
2023-05-15T17:51:44.799Z,7.88
2023-05-15T17:54:11.359Z,8.40
2023-05-15T17:56:37.970Z,8.48
2023-05-15T17:59:04.683Z,8.20
2023-05-15T18:01:31.270Z,9.20
2023-05-15T18:03:57.865Z,9.25
2023-05-15T18:06:24.551Z,9.57
2023-05-15T18:08:52.467Z,8.98
2023-05-15T18:11:22.570Z,9.75
2023-05-15T18:13:49.579Z,9.63
2023-05-15T18:16:16.157Z,9.38
2023-05-15T18:18:42.770Z,9.27
2023-05-15T18:21:09.345Z,9.43
2023-05-15T18:23:35.943Z,8.55
2023-05-15T18:26:03.789Z,8.40
2023-05-15T18:28:31.755Z,8.65
2023-05-15T18:30:58.396Z,9.82
2023-05-15T18:33:24.964Z,10.05
2023-05-15T18:35:51.513Z,8.57
2023-05-15T18:38:18.346Z,8.82
2023-05-15T18:40:46.044Z,8.80
2023-05-15T18:43:14.231Z,8.95
2023-05-15T18:45:40.854Z,8.88
2023-05-15T18:48:07.481Z,8.98
2023-05-15T18:50:34.727Z,9.75
2023-05-15T18:53:01.651Z,9.20
2023-05-15T18:55:28.317Z,9.80
2023-05-15T18:57:54.959Z,9.38
2023-05-15T19:00:33.921Z,9.25
2023-05-15T19:03:05.034Z,9.68
2023-05-15T19:05:31.664Z,9.35
2023-05-15T19:07:58.450Z,9.50
2023-05-15T19:10:25.044Z,9.38
2023-05-15T19:12:51.672Z,9.40
2023-05-15T19:15:18.334Z,9.30
2023-05-15T19:17:46.295Z,9.82
2023-05-15T19:20:12.932Z,9.70
2023-05-15T19:22:39.516Z,9.35
2023-05-15T19:25:06.999Z,9.85
2023-05-15T19:27:33.613Z,10.15
2023-05-15T19:30:00.340Z,10.82
2023-05-15T19:32:27.172Z,10.93
2023-05-15T19:34:55.116Z,12.32
2023-05-15T19:37:21.865Z,11.80
2023-05-15T19:39:48.385Z,10.38
2023-05-15T19:42:15.114Z,11.18
2023-05-15T19:44:41.624Z,10.00
2023-05-15T19:47:08.412Z,10.60
2023-05-15T19:49:34.924Z,9.57
2023-05-15T19:52:03.022Z,9.93
2023-05-15T19:54:29.590Z,9.82
2023-05-15T19:56:56.195Z,10.13
2023-05-15T19:59:22.700Z,11.45
2023-05-15T20:01:49.486Z,13.82
2023-05-15T20:04:15.984Z,14.20
2023-05-15T20:06:42.538Z,14.20
2023-05-15T20:09:10.396Z,10.57
2023-05-15T20:11:36.990Z,8.85
2023-05-15T20:14:03.544Z,7.90
2023-05-15T20:16:30.179Z,8.02
2023-05-15T20:18:56.721Z,6.72
2023-05-15T20:21:23.308Z,6.70
2023-05-15T20:23:49.840Z,6.43
2023-05-15T20:26:18.795Z,6.85
2023-05-15T20:28:45.541Z,6.50
2023-05-15T20:31:12.229Z,7.05
2023-05-15T20:33:38.809Z,7.57
2023-05-15T20:36:05.521Z,6.75
2023-05-15T20:38:32.049Z,6.82
2023-05-15T20:40:58.660Z,7.70
2023-05-15T20:43:26.614Z,6.80
2023-05-15T20:45:53.357Z,7.47
2023-05-15T20:48:19.903Z,8.00
2023-05-15T20:50:46.508Z,7.07
2023-05-15T20:53:13.112Z,6.40
2023-05-15T20:55:39.747Z,6.32
2023-05-15T20:58:06.304Z,6.78
2023-05-15T21:00:34.439Z,6.88
2023-05-15T21:03:01.015Z,6.03
2023-05-15T21:05:27.675Z,6.10
2023-05-15T21:07:54.298Z,5.93
2023-05-15T21:10:21.055Z,6.65
2023-05-15T21:12:47.586Z,6.20
2023-05-15T21:15:14.172Z,6.10
2023-05-15T21:17:42.061Z,5.90
2023-05-15T21:20:09.441Z,6.10
2023-05-15T21:22:36.467Z,6.28
2023-05-15T21:25:03.210Z,5.78
2023-05-15T21:27:29.740Z,4.97
2023-05-15T21:29:56.398Z,6.47
2023-05-15T21:32:22.904Z,5.32
2023-05-15T21:34:50.837Z,5.40
2023-05-15T21:37:17.369Z,5.80
2023-05-15T21:39:44.183Z,6.57
2023-05-15T21:42:10.687Z,6.07
2023-05-15T21:44:37.227Z,5.65
2023-05-15T21:47:04.126Z,5.40
2023-05-15T21:49:30.752Z,4.85
2023-05-15T21:51:58.723Z,5.00
2023-05-15T21:54:25.317Z,5.28
2023-05-15T21:56:51.858Z,4.78
2023-05-15T21:59:18.585Z,4.47
2023-05-15T22:01:45.224Z,4.57
2023-05-15T22:04:11.853Z,4.22
2023-05-15T22:06:38.478Z,4.20
2023-05-15T22:09:06.377Z,4.30
2023-05-15T22:11:33.182Z,4.70
2023-05-15T22:13:59.757Z,4.05
2023-05-15T22:16:26.390Z,4.65
2023-05-15T22:18:53.092Z,4.47
2023-05-15T22:21:19.711Z,4.68
2023-05-15T22:23:46.335Z,4.85
2023-05-15T22:26:14.262Z,4.72
2023-05-15T22:28:41.010Z,4.55
2023-05-15T22:31:07.546Z,4.72
2023-05-15T22:33:34.191Z,4.65
2023-05-15T22:36:00.752Z,4.15
2023-05-15T22:38:27.360Z,4.97
2023-05-15T22:40:54.043Z,4.60
2023-05-15T22:43:22.015Z,4.25
2023-05-15T22:45:48.665Z,4.60
2023-05-15T22:48:15.270Z,4.70
2023-05-15T22:50:42.016Z,4.65
2023-05-15T22:53:08.625Z,4.68
2023-05-15T22:55:35.165Z,4.72
2023-05-15T22:58:01.922Z,4.93
2023-05-15T23:00:30.069Z,4.63
2023-05-15T23:02:57.182Z,5.53
2023-05-15T23:05:24.272Z,5.00
2023-05-15T23:07:50.849Z,4.43
2023-05-15T23:10:17.338Z,4.68
2023-05-15T23:12:44.070Z,4.32
2023-05-15T23:15:10.995Z,4.10
2023-05-15T23:17:39.300Z,5.18
2023-05-15T23:20:07.042Z,5.20
2023-05-15T23:22:33.661Z,5.47
2023-05-15T23:25:00.203Z,5.82
2023-05-15T23:27:26.822Z,5.70
2023-05-15T23:29:53.673Z,5.28
2023-05-15T23:32:20.263Z,4.70
2023-05-15T23:34:48.636Z,6.35
2023-05-15T23:37:15.279Z,5.68
2023-05-15T23:39:41.798Z,5.40
2023-05-15T23:42:08.384Z,5.55
2023-05-15T23:44:34.912Z,5.97
2023-05-15T23:47:01.628Z,6.40
2023-05-15T23:49:28.390Z,5.45
2023-05-15T23:51:56.343Z,5.65
2023-05-15T23:54:22.835Z,5.22
2023-05-15T23:56:49.510Z,5.28
2023-05-15T23:59:16.044Z,5.25
